createdAt,value
2018-02-04T00:00:18.281Z,6.89
2018-02-04T00:00:58.967Z,6.91
2018-02-04T00:01:39.502Z,7.09
2018-02-04T00:02:19.980Z,6.88
2018-02-04T00:03:00.555Z,6.77
2018-02-04T00:03:41.097Z,6.74
2018-02-04T00:04:21.627Z,6.73
2018-02-04T00:05:02.172Z,6.77
2018-02-04T00:05:42.703Z,6.91
2018-02-04T00:06:23.216Z,6.89
2018-02-04T00:07:03.724Z,6.88
2018-02-04T00:07:44.252Z,6.91
2018-02-04T00:08:24.912Z,6.95
2018-02-04T00:09:05.427Z,6.98
2018-02-04T00:09:45.917Z,7.07
2018-02-04T00:10:26.490Z,7.21
2018-02-04T00:11:07.001Z,7.31
2018-02-04T00:11:47.525Z,7.25
2018-02-04T00:12:28.044Z,7.23
2018-02-04T00:13:08.613Z,7.16
2018-02-04T00:13:49.131Z,7.12
2018-02-04T00:14:29.722Z,7.05
2018-02-04T00:15:10.261Z,7.15
2018-02-04T00:15:50.783Z,7.09
2018-02-04T00:16:31.353Z,7.21
2018-02-04T00:17:11.834Z,7.34
2018-02-04T00:17:52.390Z,7.39
2018-02-04T00:18:32.894Z,7.3
2018-02-04T00:19:14.269Z,7.21
2018-02-04T00:19:54.848Z,7.1
2018-02-04T00:20:35.392Z,7.32
2018-02-04T00:21:15.871Z,7.28
2018-02-04T00:21:56.436Z,7.37
2018-02-04T00:22:36.995Z,7.4
2018-02-04T00:23:17.589Z,7.48
2018-02-04T00:23:58.101Z,7.28
2018-02-04T00:24:38.667Z,6.92
2018-02-04T00:25:19.216Z,6.99
2018-02-04T00:25:59.749Z,7.02
2018-02-04T00:26:40.318Z,6.97
2018-02-04T00:27:20.832Z,6.99
2018-02-04T00:28:01.388Z,7.17
2018-02-04T00:28:41.984Z,7.25
2018-02-04T00:29:22.523Z,7.17
2018-02-04T00:30:03.127Z,7.09
2018-02-04T00:30:43.691Z,7.21
2018-02-04T00:31:24.184Z,7.16
2018-02-04T00:32:04.715Z,7.15
2018-02-04T00:32:45.246Z,7.12
2018-02-04T00:33:25.849Z,6.99
2018-02-04T00:34:06.353Z,6.97
2018-02-04T00:34:46.912Z,7.03
2018-02-04T00:35:27.494Z,6.84
2018-02-04T00:36:07.986Z,6.8
2018-02-04T00:36:48.499Z,6.69
2018-02-04T00:37:29.012Z,6.8
2018-02-04T00:38:09.572Z,6.88
2018-02-04T00:38:50.081Z,6.74
2018-02-04T00:39:30.776Z,6.88
2018-02-04T00:40:11.313Z,6.92
2018-02-04T00:40:51.802Z,7.09
2018-02-04T00:41:32.380Z,7.2
2018-02-04T00:42:12.875Z,7.25
2018-02-04T00:42:53.429Z,6.81
2018-02-04T00:43:33.990Z,6.73
2018-02-04T00:44:14.551Z,6.64
2018-02-04T00:44:55.119Z,6.38
2018-02-04T00:45:35.738Z,6.49
2018-02-04T00:46:16.345Z,6.59
2018-02-04T00:46:56.899Z,6.79
2018-02-04T00:47:37.486Z,6.87
2018-02-04T00:48:18.051Z,7.02
2018-02-04T00:48:58.598Z,7.09
2018-02-04T00:49:39.120Z,7.16
2018-02-04T00:50:19.684Z,7.06
2018-02-04T00:51:00.254Z,7.05
2018-02-04T00:51:40.788Z,7.02
2018-02-04T00:52:21.388Z,7.1
2018-02-04T00:53:01.922Z,6.98
2018-02-04T00:53:42.443Z,7.1
2018-02-04T00:54:22.986Z,6.94
2018-02-04T00:55:03.523Z,6.77
2018-02-04T00:55:44.111Z,6.76
2018-02-04T00:56:24.750Z,6.61
2018-02-04T00:57:05.240Z,6.55
2018-02-04T00:57:45.789Z,6.48
2018-02-04T00:58:26.330Z,6.41
2018-02-04T00:59:06.834Z,6.59
2018-02-04T00:59:47.407Z,6.62
2018-02-04T01:00:27.970Z,6.51
2018-02-04T01:01:08.478Z,6.66
2018-02-04T01:01:48.998Z,6.66
2018-02-04T01:02:29.535Z,6.58
2018-02-04T01:03:10.069Z,6.48
2018-02-04T01:03:50.611Z,6.37
2018-02-04T01:04:31.207Z,6.33
2018-02-04T01:05:11.744Z,6.28
2018-02-04T01:05:52.252Z,6.36
2018-02-04T01:06:32.847Z,6.37
2018-02-04T01:07:13.370Z,6.28
2018-02-04T01:07:53.886Z,6.28
2018-02-04T01:08:34.405Z,6.22
2018-02-04T01:09:14.944Z,6.04
2018-02-04T01:09:55.484Z,6.21
2018-02-04T01:10:36.057Z,6.18
2018-02-04T01:11:16.590Z,6.33
2018-02-04T01:11:57.111Z,6.4
2018-02-04T01:12:37.667Z,6.52
2018-02-04T01:13:18.174Z,6.61
2018-02-04T01:13:58.712Z,6.74
2018-02-04T01:14:39.328Z,6.8
2018-02-04T01:15:19.865Z,6.91
2018-02-04T01:16:00.405Z,7.02
2018-02-04T01:16:40.988Z,6.97
2018-02-04T01:17:21.508Z,7.12
2018-02-04T01:18:02.061Z,7.07
2018-02-04T01:18:42.578Z,7.23
2018-02-04T01:19:23.142Z,7.15
2018-02-04T01:20:03.689Z,7.24
2018-02-04T01:20:44.251Z,7.27
2018-02-04T01:21:24.765Z,7.17
2018-02-04T01:22:05.306Z,7.21
2018-02-04T01:22:45.827Z,7.31
2018-02-04T01:23:26.403Z,7.25
2018-02-04T01:24:06.909Z,7.31
2018-02-04T01:24:47.450Z,7.42
2018-02-04T01:25:28.010Z,7.3
2018-02-04T01:26:08.508Z,7.35
2018-02-04T01:26:49.038Z,7.4
2018-02-04T01:27:29.562Z,7.4
2018-02-04T01:28:10.112Z,7.42
2018-02-04T01:28:50.675Z,7.4
2018-02-04T01:29:31.251Z,7.45
2018-02-04T01:30:11.787Z,7.3
2018-02-04T01:30:52.335Z,7.21
2018-02-04T01:31:32.880Z,7.21
2018-02-04T01:32:13.423Z,7.27
2018-02-04T01:32:53.960Z,7.3
2018-02-04T01:33:34.535Z,7.4
2018-02-04T01:34:15.040Z,7.42
2018-02-04T01:34:55.607Z,7.35
2018-02-04T01:35:36.188Z,7.27
2018-02-04T01:36:16.714Z,7.32
2018-02-04T01:36:57.184Z,7.31
2018-02-04T01:37:37.745Z,7.32
2018-02-04T01:38:18.375Z,7.45
2018-02-04T01:38:58.876Z,7.43
2018-02-04T01:39:39.359Z,7.39
2018-02-04T01:40:19.946Z,7.39
2018-02-04T01:41:00.506Z,7.57
2018-02-04T01:41:41.058Z,7.52
2018-02-04T01:42:21.570Z,7.52
2018-02-04T01:43:02.112Z,7.53
2018-02-04T01:43:42.675Z,7.61
2018-02-04T01:44:23.205Z,7.5
2018-02-04T01:45:03.736Z,7.4
2018-02-04T01:45:44.317Z,7.42
2018-02-04T01:46:24.820Z,7.39
2018-02-04T01:47:05.372Z,7.35
2018-02-04T01:47:45.961Z,7.24
2018-02-04T01:48:26.517Z,7.34
2018-02-04T01:49:07.156Z,7.32
2018-02-04T01:49:47.591Z,7.42
2018-02-04T01:50:28.169Z,7.42
2018-02-04T01:51:08.736Z,7.53
2018-02-04T01:51:49.214Z,7.5
2018-02-04T01:52:29.780Z,7.55
2018-02-04T01:53:10.332Z,7.67
2018-02-04T01:53:50.930Z,7.67
2018-02-04T01:54:31.528Z,7.55
2018-02-04T01:55:11.986Z,7.55
2018-02-04T01:55:52.537Z,7.5
2018-02-04T01:56:33.115Z,7.55
2018-02-04T01:57:13.573Z,7.53
2018-02-04T01:57:55.010Z,7.52
2018-02-04T01:58:35.552Z,7.68
2018-02-04T01:59:16.117Z,7.68
2018-02-04T01:59:56.646Z,7.68
2018-02-04T02:00:37.235Z,7.52
2018-02-04T02:01:17.761Z,7.67
2018-02-04T02:01:58.263Z,7.52
2018-02-04T02:02:38.852Z,7.67
2018-02-04T02:03:19.427Z,7.58
2018-02-04T02:03:59.929Z,7.71
2018-02-04T02:04:40.456Z,7.74
2018-02-04T02:05:21.017Z,7.64
2018-02-04T02:06:01.650Z,7.75
2018-02-04T02:06:42.185Z,7.8
2018-02-04T02:07:22.716Z,7.63
2018-02-04T02:08:03.246Z,7.63
2018-02-04T02:08:43.763Z,7.74
2018-02-04T02:09:24.256Z,7.72
2018-02-04T02:10:04.812Z,7.72
2018-02-04T02:10:45.355Z,7.6
2018-02-04T02:11:25.933Z,7.8
2018-02-04T02:12:06.552Z,7.72
2018-02-04T02:12:47.058Z,7.72
2018-02-04T02:13:27.541Z,7.71
2018-02-04T02:14:08.104Z,7.75
2018-02-04T02:14:48.637Z,7.74
2018-02-04T02:15:29.263Z,7.71
2018-02-04T02:16:09.860Z,7.79
2018-02-04T02:16:50.300Z,7.9
2018-02-04T02:17:30.833Z,7.77
2018-02-04T02:18:11.368Z,7.8
2018-02-04T02:18:51.936Z,7.89
2018-02-04T02:19:32.448Z,7.82
2018-02-04T02:20:13.000Z,7.86
2018-02-04T02:20:53.545Z,7.86
2018-02-04T02:21:34.094Z,7.89
2018-02-04T02:22:14.684Z,7.89
2018-02-04T02:22:55.164Z,7.92
2018-02-04T02:23:35.738Z,7.9
2018-02-04T02:24:16.242Z,7.85
2018-02-04T02:24:56.740Z,7.86
2018-02-04T02:25:37.293Z,7.83
2018-02-04T02:26:17.854Z,7.92
2018-02-04T02:26:58.401Z,7.79
2018-02-04T02:27:38.983Z,7.86
2018-02-04T02:28:19.535Z,8
2018-02-04T02:29:00.063Z,7.95
2018-02-04T02:29:40.650Z,7.92
2018-02-04T02:30:21.162Z,7.92
2018-02-04T02:31:01.657Z,7.92
2018-02-04T02:31:42.200Z,7.85
2018-02-04T02:32:22.788Z,8
2018-02-04T02:33:03.309Z,8.01
2018-02-04T02:33:43.874Z,7.92
2018-02-04T02:34:24.391Z,7.87
2018-02-04T02:35:04.923Z,7.79
2018-02-04T02:35:45.457Z,7.97
2018-02-04T02:36:26.044Z,7.92
2018-02-04T02:37:06.550Z,7.9
2018-02-04T02:37:47.087Z,7.89
2018-02-04T02:38:27.629Z,7.92
2018-02-04T02:39:08.151Z,7.9
2018-02-04T02:39:48.720Z,7.79
2018-02-04T02:40:29.228Z,7.69
2018-02-04T02:41:09.775Z,7.79
2018-02-04T02:41:50.266Z,7.8
2018-02-04T02:42:30.775Z,7.77
2018-02-04T02:43:11.339Z,7.67
2018-02-04T02:43:51.894Z,7.74
2018-02-04T02:44:32.372Z,7.71
2018-02-04T02:45:12.932Z,7.68
2018-02-04T02:45:53.486Z,7.61
2018-02-04T02:46:34.016Z,7.67
2018-02-04T02:47:14.601Z,7.55
2018-02-04T02:47:55.130Z,7.49
2018-02-04T02:48:35.667Z,7.61
2018-02-04T02:49:16.202Z,7.68
2018-02-04T02:49:56.788Z,7.67
2018-02-04T02:50:37.349Z,7.61
2018-02-04T02:51:17.842Z,7.71
2018-02-04T02:51:58.366Z,7.68
2018-02-04T02:52:38.877Z,7.8
2018-02-04T02:53:19.942Z,7.89
2018-02-04T02:53:59.994Z,7.79
2018-02-04T02:54:40.493Z,7.8
2018-02-04T02:55:21.051Z,7.86
2018-02-04T02:56:01.607Z,7.86
2018-02-04T02:56:42.191Z,7.89
2018-02-04T02:57:22.730Z,7.93
2018-02-04T02:58:03.244Z,7.95
2018-02-04T02:58:43.803Z,7.85
2018-02-04T02:59:24.313Z,7.92
2018-02-04T03:00:04.863Z,7.9
2018-02-04T03:00:45.399Z,7.89
2018-02-04T03:01:25.954Z,7.92
2018-02-04T03:02:06.495Z,7.92
2018-02-04T03:02:47.018Z,7.89
2018-02-04T03:03:27.565Z,7.93
2018-02-04T03:04:08.132Z,7.97
2018-02-04T03:04:48.694Z,7.9
2018-02-04T03:05:29.200Z,7.86
2018-02-04T03:06:09.725Z,8.01
2018-02-04T03:06:50.225Z,8.05
2018-02-04T03:07:30.774Z,7.98
2018-02-04T03:08:11.349Z,7.98
2018-02-04T03:08:51.900Z,7.98
2018-02-04T03:09:32.445Z,8.02
2018-02-04T03:10:12.992Z,8.01
2018-02-04T03:10:53.545Z,8.04
2018-02-04T03:11:34.152Z,8.02
2018-02-04T03:12:14.686Z,8.01
2018-02-04T03:12:55.198Z,8.05
2018-02-04T03:13:35.751Z,8.05
2018-02-04T03:14:16.351Z,8.05
2018-02-04T03:14:56.861Z,8.08
2018-02-04T03:15:37.433Z,8.07
2018-02-04T03:16:18.000Z,8.05
2018-02-04T03:16:58.502Z,8.1
2018-02-04T03:17:39.077Z,8.1
2018-02-04T03:18:19.674Z,8.11
2018-02-04T03:19:00.227Z,8.11
2018-02-04T03:19:40.819Z,8.05
2018-02-04T03:20:21.348Z,8.1
2018-02-04T03:21:01.805Z,8.02
2018-02-04T03:21:42.327Z,8.05
2018-02-04T03:22:22.874Z,8.08
2018-02-04T03:23:03.566Z,7.98
2018-02-04T03:23:44.142Z,8
2018-02-04T03:24:24.635Z,8.1
2018-02-04T03:25:05.133Z,8.07
2018-02-04T03:25:45.682Z,8.16
2018-02-04T03:26:26.235Z,8.08
2018-02-04T03:27:06.738Z,8.1
2018-02-04T03:27:47.295Z,8.12
2018-02-04T03:28:27.844Z,8.07
2018-02-04T03:29:08.395Z,8.12
2018-02-04T03:29:48.926Z,8.16
2018-02-04T03:30:29.465Z,8.16
2018-02-04T03:31:10.030Z,8.15
2018-02-04T03:31:50.542Z,8.11
2018-02-04T03:32:31.089Z,8.16
2018-02-04T03:33:11.631Z,8.16
2018-02-04T03:33:52.132Z,8.19
2018-02-04T03:34:32.739Z,8.18
2018-02-04T03:35:13.314Z,8.19
2018-02-04T03:35:53.797Z,8.1
2018-02-04T03:36:34.364Z,8.12
2018-02-04T03:37:14.844Z,8.08
2018-02-04T03:37:55.381Z,8.1
2018-02-04T03:38:35.942Z,8.12
2018-02-04T03:39:16.488Z,8.15
2018-02-04T03:39:57.026Z,8
2018-02-04T03:40:37.553Z,8.11
2018-02-04T03:41:18.062Z,8.01
2018-02-04T03:41:58.675Z,8.04
2018-02-04T03:42:39.216Z,8.05
2018-02-04T03:43:19.796Z,8.08
2018-02-04T03:44:00.364Z,8.07
2018-02-04T03:44:40.893Z,8.05
2018-02-04T03:45:21.424Z,8.07
2018-02-04T03:46:01.949Z,8.11
2018-02-04T03:46:42.498Z,8.08
2018-02-04T03:47:23.057Z,8.1
2018-02-04T03:48:03.608Z,8.16
2018-02-04T03:48:44.194Z,8.16
2018-02-04T03:49:24.782Z,8.02
2018-02-04T03:50:05.409Z,8.04
2018-02-04T03:50:45.884Z,8.1
2018-02-04T03:51:26.418Z,8.08
2018-02-04T03:52:06.958Z,8.04
2018-02-04T03:52:47.492Z,7.93
2018-02-04T03:53:28.057Z,7.93
2018-02-04T03:54:08.584Z,8.02
2018-02-04T03:54:49.142Z,8.05
2018-02-04T03:55:29.678Z,8.04
2018-02-04T03:56:10.212Z,8.08
2018-02-04T03:56:50.744Z,8.05
2018-02-04T03:57:31.268Z,8.08
2018-02-04T03:58:11.816Z,8.07
2018-02-04T03:58:52.352Z,8.1
2018-02-04T03:59:32.900Z,8.15
2018-02-04T04:00:13.445Z,8.11
2018-02-04T04:00:54.010Z,8.12
2018-02-04T04:01:34.595Z,8.05
2018-02-04T04:02:15.130Z,8.18
2018-02-04T04:02:55.674Z,8.16
2018-02-04T04:03:36.184Z,8.08
2018-02-04T04:04:16.741Z,8.05
2018-02-04T04:04:57.290Z,8.11
2018-02-04T04:05:37.855Z,7.98
2018-02-04T04:06:18.350Z,8.26
2018-02-04T04:06:58.865Z,8.1
2018-02-04T04:07:39.455Z,8.16
2018-02-04T04:08:19.993Z,8.19
2018-02-04T04:09:00.496Z,8.12
2018-02-04T04:09:41.042Z,8.16
2018-02-04T04:10:21.614Z,8.16
2018-02-04T04:11:02.181Z,8.19
2018-02-04T04:11:42.702Z,8.1
2018-02-04T04:12:23.219Z,8.16
2018-02-04T04:13:03.774Z,8.18
2018-02-04T04:13:44.314Z,8.26
2018-02-04T04:14:24.854Z,8.19
2018-02-04T04:15:05.376Z,8.15
2018-02-04T04:15:45.894Z,8.15
2018-02-04T04:16:26.434Z,8.19
2018-02-04T04:17:06.977Z,8.15
2018-02-04T04:17:47.500Z,8.12
2018-02-04T04:18:28.122Z,8.15
2018-02-04T04:19:08.736Z,8.25
2018-02-04T04:19:49.249Z,8.08
2018-02-04T04:20:29.804Z,8.22
2018-02-04T04:21:10.319Z,8.1
2018-02-04T04:21:50.825Z,8.12
2018-02-04T04:22:31.439Z,8.16
2018-02-04T04:23:12.005Z,8.16
2018-02-04T04:23:52.569Z,8
2018-02-04T04:24:33.091Z,7.87
2018-02-04T04:25:13.607Z,7.89
2018-02-04T04:25:54.166Z,7.9
2018-02-04T04:26:34.699Z,7.86
2018-02-04T04:27:15.200Z,7.75
2018-02-04T04:27:55.850Z,7.61
2018-02-04T04:28:36.450Z,7.5
2018-02-04T04:29:16.969Z,7.52
2018-02-04T04:29:57.474Z,7.42
2018-02-04T04:30:38.003Z,7.43
2018-02-04T04:31:18.494Z,7.5
2018-02-04T04:31:59.041Z,7.53
2018-02-04T04:32:39.599Z,7.61
2018-02-04T04:33:20.167Z,7.64
2018-02-04T04:34:00.722Z,7.67
2018-02-04T04:34:41.259Z,7.72
2018-02-04T04:35:21.797Z,7.75
2018-02-04T04:36:02.447Z,7.67
2018-02-04T04:36:43.029Z,7.68
2018-02-04T04:37:23.518Z,7.69
2018-02-04T04:38:04.076Z,7.61
2018-02-04T04:38:44.609Z,7.61
2018-02-04T04:39:25.188Z,7.5
2018-02-04T04:40:05.680Z,7.5
2018-02-04T04:40:46.254Z,7.46
2018-02-04T04:41:26.895Z,7.42
2018-02-04T04:42:08.075Z,7.49
2018-02-04T04:42:48.674Z,7.55
2018-02-04T04:43:29.176Z,7.55
2018-02-04T04:44:09.695Z,7.52
2018-02-04T04:44:50.217Z,7.53
2018-02-04T04:45:30.719Z,7.64
2018-02-04T04:46:11.307Z,7.67
2018-02-04T04:46:51.827Z,7.71
2018-02-04T04:47:32.343Z,7.75
2018-02-04T04:48:12.869Z,7.68
2018-02-04T04:48:53.395Z,7.68
2018-02-04T04:49:33.969Z,7.67
2018-02-04T04:50:14.638Z,7.63
2018-02-04T04:50:55.036Z,7.68
2018-02-04T04:51:35.535Z,7.43
2018-02-04T04:52:16.063Z,7.35
2018-02-04T04:52:56.569Z,7.45
2018-02-04T04:53:37.134Z,7.46
2018-02-04T04:54:17.710Z,7.39
2018-02-04T04:54:58.257Z,7.42
2018-02-04T04:55:38.751Z,7.43
2018-02-04T04:56:19.255Z,7.49
2018-02-04T04:56:59.801Z,7.5
2018-02-04T04:57:40.348Z,7.64
2018-02-04T04:58:20.849Z,7.52
2018-02-04T04:59:01.379Z,7.68
2018-02-04T04:59:41.912Z,7.74
2018-02-04T05:00:22.480Z,7.72
2018-02-04T05:01:03.050Z,7.74
2018-02-04T05:01:43.614Z,7.72
2018-02-04T05:02:24.160Z,7.52
2018-02-04T05:03:04.641Z,7.46
2018-02-04T05:03:45.226Z,7.49
2018-02-04T05:04:25.713Z,7.64
2018-02-04T05:05:06.275Z,7.5
2018-02-04T05:05:46.817Z,7.63
2018-02-04T05:06:27.375Z,7.68
2018-02-04T05:07:07.871Z,7.68
2018-02-04T05:07:48.409Z,7.68
2018-02-04T05:08:28.937Z,7.69
2018-02-04T05:09:09.525Z,7.69
2018-02-04T05:09:50.016Z,7.72
2018-02-04T05:10:30.556Z,7.63
2018-02-04T05:11:11.154Z,7.49
2018-02-04T05:11:51.688Z,7.6
2018-02-04T05:12:32.241Z,7.63
2018-02-04T05:13:12.786Z,7.71
2018-02-04T05:13:53.375Z,7.71
2018-02-04T05:14:33.887Z,7.75
2018-02-04T05:15:14.420Z,7.75
2018-02-04T05:15:54.935Z,7.75
2018-02-04T05:16:35.480Z,7.75
2018-02-04T05:17:16.046Z,7.83
2018-02-04T05:17:56.527Z,7.89
2018-02-04T05:18:37.107Z,7.69
2018-02-04T05:19:17.665Z,7.67
2018-02-04T05:19:58.313Z,7.69
2018-02-04T05:20:38.838Z,7.64
2018-02-04T05:21:19.416Z,7.46
2018-02-04T05:21:59.934Z,7.52
2018-02-04T05:22:40.479Z,7.52
2018-02-04T05:23:21.150Z,7.63
2018-02-04T05:24:01.645Z,7.64
2018-02-04T05:24:42.192Z,7.58
2018-02-04T05:25:22.750Z,7.64
2018-02-04T05:26:03.345Z,7.61
2018-02-04T05:26:43.903Z,7.55
2018-02-04T05:27:24.412Z,7.28
2018-02-04T05:28:05.007Z,7.25
2018-02-04T05:28:45.468Z,7.24
2018-02-04T05:29:26.029Z,7.2
2018-02-04T05:30:06.591Z,7.16
2018-02-04T05:30:47.113Z,7.2
2018-02-04T05:31:27.629Z,7.12
2018-02-04T05:32:08.188Z,7.13
2018-02-04T05:32:48.749Z,7.15
2018-02-04T05:33:29.221Z,7.21
2018-02-04T05:34:09.796Z,7.15
2018-02-04T05:34:50.281Z,7.31
2018-02-04T05:35:30.815Z,7.43
2018-02-04T05:36:11.390Z,7.25
2018-02-04T05:36:51.893Z,7.34
2018-02-04T05:37:32.463Z,7.24
2018-02-04T05:38:12.987Z,7.25
2018-02-04T05:38:53.571Z,7.28
2018-02-04T05:39:34.112Z,7.3
2018-02-04T05:40:14.692Z,7.3
2018-02-04T05:40:55.277Z,7.28
2018-02-04T05:41:35.821Z,7.32
2018-02-04T05:42:16.319Z,7.24
2018-02-04T05:42:56.844Z,7.25
2018-02-04T05:43:37.413Z,7.32
2018-02-04T05:44:17.991Z,7.31
2018-02-04T05:44:58.496Z,7.45
2018-02-04T05:45:39.006Z,7.45
2018-02-04T05:46:19.549Z,7.46
2018-02-04T05:47:00.161Z,7.32
2018-02-04T05:47:40.647Z,7.3
2018-02-04T05:48:21.151Z,7.34
2018-02-04T05:49:01.689Z,7.4
2018-02-04T05:49:42.225Z,7.43
2018-02-04T05:50:22.753Z,7.45
2018-02-04T05:51:03.298Z,7.57
2018-02-04T05:51:43.822Z,7.49
2018-02-04T05:52:24.345Z,7.52
2018-02-04T05:53:04.925Z,7.5
2018-02-04T05:53:45.439Z,7.46
2018-02-04T05:54:26.119Z,7.42
2018-02-04T05:55:06.590Z,7.49
2018-02-04T05:55:47.186Z,7.49
2018-02-04T05:56:27.683Z,7.52
2018-02-04T05:57:08.204Z,7.53
2018-02-04T05:57:48.780Z,7.27
2018-02-04T05:58:29.301Z,7.24
2018-02-04T05:59:09.856Z,7.16
2018-02-04T05:59:50.337Z,7.27
2018-02-04T06:00:31.488Z,7.25
2018-02-04T06:01:11.481Z,7.15
2018-02-04T06:01:52.036Z,6.97
2018-02-04T06:02:32.532Z,7.17
2018-02-04T06:03:13.144Z,7.25
2018-02-04T06:03:53.693Z,7.28
2018-02-04T06:04:34.346Z,7.23
2018-02-04T06:05:14.870Z,6.81
2018-02-04T06:05:55.441Z,6.77
2018-02-04T06:06:35.986Z,6.88
2018-02-04T06:07:16.483Z,6.92
2018-02-04T06:07:57.040Z,7.06
2018-02-04T06:08:37.583Z,7.13
2018-02-04T06:09:18.120Z,7.07
2018-02-04T06:09:58.642Z,6.92
2018-02-04T06:10:39.149Z,6.74
2018-02-04T06:11:19.710Z,6.74
2018-02-04T06:12:00.296Z,6.73
2018-02-04T06:12:40.827Z,6.73
2018-02-04T06:13:21.411Z,6.71
2018-02-04T06:14:01.933Z,6.85
2018-02-04T06:14:42.438Z,6.89
2018-02-04T06:15:22.973Z,6.85
2018-02-04T06:16:03.496Z,6.76
2018-02-04T06:16:44.043Z,6.79
2018-02-04T06:17:24.588Z,6.88
2018-02-04T06:18:05.074Z,7.06
2018-02-04T06:18:45.631Z,6.92
2018-02-04T06:19:26.207Z,6.92
2018-02-04T06:20:06.706Z,7.13
2018-02-04T06:20:47.272Z,7.2
2018-02-04T06:21:27.739Z,7.2
2018-02-04T06:22:08.340Z,7.09
2018-02-04T06:22:48.860Z,6.88
2018-02-04T06:23:29.394Z,6.95
2018-02-04T06:24:09.936Z,6.98
2018-02-04T06:24:50.479Z,6.98
2018-02-04T06:25:31.029Z,6.95
2018-02-04T06:26:11.575Z,6.88
2018-02-04T06:26:52.115Z,7.02
2018-02-04T06:27:32.647Z,6.88
2018-02-04T06:28:13.191Z,6.97
2018-02-04T06:28:53.719Z,6.91
2018-02-04T06:29:34.339Z,6.98
2018-02-04T06:30:14.875Z,7.1
2018-02-04T06:30:55.415Z,7.24
2018-02-04T06:31:35.944Z,7.28
2018-02-04T06:32:16.463Z,7.32
2018-02-04T06:32:57.006Z,7.2
2018-02-04T06:33:37.545Z,7.16
2018-02-04T06:34:18.065Z,7.21
2018-02-04T06:34:58.599Z,7.28
2018-02-04T06:35:39.100Z,7.32
2018-02-04T06:36:19.629Z,7.43
2018-02-04T06:37:00.205Z,7.32
2018-02-04T06:37:40.697Z,7.31
2018-02-04T06:38:21.245Z,7.3
2018-02-04T06:39:01.805Z,7.4
2018-02-04T06:39:42.366Z,7.32
2018-02-04T06:40:22.905Z,7.21
2018-02-04T06:41:03.465Z,7.2
2018-02-04T06:41:44.005Z,7.02
2018-02-04T06:42:24.508Z,6.98
2018-02-04T06:43:05.101Z,6.8
2018-02-04T06:43:45.584Z,6.81
2018-02-04T06:44:26.154Z,6.77
2018-02-04T06:45:06.677Z,6.7
2018-02-04T06:45:47.252Z,6.94
2018-02-04T06:46:27.793Z,7.02
2018-02-04T06:47:08.352Z,7.15
2018-02-04T06:47:48.859Z,7.24
2018-02-04T06:48:29.425Z,7.25
2018-02-04T06:49:09.948Z,7.3
2018-02-04T06:49:50.514Z,7.25
2018-02-04T06:50:31.132Z,7.17
2018-02-04T06:51:11.720Z,7.31
2018-02-04T06:51:52.403Z,7.34
2018-02-04T06:52:32.882Z,7.32
2018-02-04T06:53:13.470Z,7.45
2018-02-04T06:53:53.997Z,7.43
2018-02-04T06:54:34.536Z,7.35
2018-02-04T06:55:15.046Z,7.28
2018-02-04T06:55:55.599Z,7.4
2018-02-04T06:56:36.155Z,7.43
2018-02-04T06:57:16.723Z,7.55
2018-02-04T06:57:57.232Z,7.46
2018-02-04T06:58:37.825Z,7.52
2018-02-04T06:59:18.378Z,7.58
2018-02-04T06:59:58.911Z,7.52
2018-02-04T07:00:39.534Z,7.49
2018-02-04T07:01:20.018Z,7.5
2018-02-04T07:02:00.552Z,7.5
2018-02-04T07:02:41.092Z,7.42
2018-02-04T07:03:21.588Z,7.43
2018-02-04T07:04:02.290Z,7.46
2018-02-04T07:04:42.867Z,7.45
2018-02-04T07:05:23.388Z,7.53
2018-02-04T07:06:03.888Z,7.6
2018-02-04T07:06:44.414Z,7.6
2018-02-04T07:07:24.940Z,7.6
2018-02-04T07:08:05.459Z,7.52
2018-02-04T07:08:45.989Z,7.4
2018-02-04T07:09:26.546Z,7.43
2018-02-04T07:10:07.061Z,7.39
2018-02-04T07:10:47.626Z,7.42
2018-02-04T07:11:28.232Z,7.27
2018-02-04T07:12:08.761Z,7.31
2018-02-04T07:12:49.296Z,7.31
2018-02-04T07:13:29.850Z,7.42
2018-02-04T07:14:10.429Z,7.3
2018-02-04T07:14:50.983Z,7.43
2018-02-04T07:15:31.520Z,7.37
2018-02-04T07:16:12.027Z,7.4
2018-02-04T07:16:52.554Z,7.42
2018-02-04T07:17:33.129Z,7.42
2018-02-04T07:18:13.684Z,7.32
2018-02-04T07:18:54.225Z,7.49
2018-02-04T07:19:34.807Z,7.45
2018-02-04T07:20:15.369Z,7.42
2018-02-04T07:20:55.902Z,7.42
2018-02-04T07:21:36.473Z,7.43
2018-02-04T07:22:17.027Z,7.42
2018-02-04T07:22:57.634Z,7.39
2018-02-04T07:23:38.106Z,7.39
2018-02-04T07:24:18.663Z,7.5
2018-02-04T07:24:59.276Z,7.42
2018-02-04T07:25:39.772Z,7.31
2018-02-04T07:26:20.339Z,7.31
2018-02-04T07:27:00.870Z,7.43
2018-02-04T07:27:41.430Z,7.35
2018-02-04T07:28:21.965Z,7.46
2018-02-04T07:29:02.491Z,7.43
2018-02-04T07:29:43.043Z,7.48
2018-02-04T07:30:23.619Z,7.52
2018-02-04T07:31:04.140Z,7.57
2018-02-04T07:31:44.677Z,7.42
2018-02-04T07:32:25.237Z,7.42
2018-02-04T07:33:05.790Z,7.28
2018-02-04T07:33:46.332Z,7.17
2018-02-04T07:34:26.978Z,7.15
2018-02-04T07:35:07.428Z,7.2
2018-02-04T07:35:47.964Z,7.07
2018-02-04T07:36:28.481Z,7.17
2018-02-04T07:37:09.047Z,7.23
2018-02-04T07:37:49.602Z,7.35
2018-02-04T07:38:30.158Z,7.35
2018-02-04T07:39:10.659Z,7.43
2018-02-04T07:39:51.288Z,7.46
2018-02-04T07:40:31.799Z,7.39
2018-02-04T07:41:12.422Z,7.57
2018-02-04T07:41:52.973Z,7.45
2018-02-04T07:42:33.550Z,7.24
2018-02-04T07:43:14.087Z,7.24
2018-02-04T07:43:54.657Z,7.28
2018-02-04T07:44:35.185Z,7.1
2018-02-04T07:45:15.709Z,7.15
2018-02-04T07:45:57.860Z,7.05
2018-02-04T07:46:38.326Z,7.1
2018-02-04T07:47:19.003Z,6.87
2018-02-04T07:48:00.223Z,6.77
2018-02-04T07:48:40.819Z,6.84
2018-02-04T07:49:21.280Z,6.99
2018-02-04T07:50:01.845Z,6.92
2018-02-04T07:50:42.328Z,7.05
2018-02-04T07:51:22.874Z,6.99
2018-02-04T07:52:03.395Z,6.99
2018-02-04T07:52:43.944Z,7.06
2018-02-04T07:53:24.506Z,7.16
2018-02-04T07:54:05.078Z,7.31
2018-02-04T07:54:45.608Z,7.46
2018-02-04T07:55:26.339Z,7.43
2018-02-04T07:56:06.853Z,7.61
2018-02-04T07:56:47.385Z,7.61
2018-02-04T07:57:27.973Z,7.63
2018-02-04T07:58:08.475Z,7.37
2018-02-04T07:58:49.151Z,7.49
2018-02-04T07:59:29.831Z,7.52
2018-02-04T08:00:10.439Z,7.67
2018-02-04T08:00:50.956Z,7.72
2018-02-04T08:01:31.619Z,7.83
2018-02-04T08:02:12.168Z,7.67
2018-02-04T08:02:52.616Z,7.42
2018-02-04T08:03:33.295Z,7.35
2018-02-04T08:04:13.816Z,7.2
2018-02-04T08:06:04.965Z,7.48
2018-02-04T08:06:45.539Z,7.61
2018-02-04T08:07:26.062Z,7.52
2018-02-04T08:08:06.587Z,7.31
2018-02-04T08:08:47.099Z,7.31
2018-02-04T08:09:27.708Z,7.46
2018-02-04T08:10:08.273Z,7.63
2018-02-04T08:10:48.936Z,7.71
2018-02-04T08:11:29.459Z,7.92
2018-02-04T08:12:10.336Z,7.87
2018-02-04T08:12:50.890Z,7.92
2018-02-04T08:13:33.158Z,8
2018-02-04T08:14:15.223Z,8.12
2018-02-04T08:14:55.867Z,8.05
2018-02-04T08:15:36.327Z,8.07
2018-02-04T08:16:16.890Z,7.92
2018-02-04T08:16:57.710Z,7.87
2018-02-04T08:17:38.213Z,8.02
2018-02-04T08:18:18.770Z,8.07
2018-02-04T08:18:59.298Z,8.08
2018-02-04T08:19:39.816Z,8.12
2018-02-04T08:20:20.333Z,8.11
2018-02-04T08:21:00.917Z,8.18
2018-02-04T08:21:41.479Z,8.08
2018-02-04T08:22:22.230Z,8.05
2018-02-04T08:23:03.112Z,7.83
2018-02-04T08:23:43.645Z,7.5
2018-02-04T08:24:24.247Z,7.49
2018-02-04T08:25:04.742Z,7.48
2018-02-04T08:25:45.275Z,7.52
2018-02-04T08:26:25.791Z,7.63
2018-02-04T08:27:06.395Z,7.46
2018-02-04T08:27:47.090Z,7.52
2018-02-04T08:28:27.700Z,7.71
2018-02-04T08:29:08.404Z,7.68
2018-02-04T08:29:48.820Z,7.57
2018-02-04T08:30:29.521Z,7.43
2018-02-04T08:31:10.162Z,7.46
2018-02-04T08:31:50.941Z,7.63
2018-02-04T08:32:31.844Z,7.82
2018-02-04T08:33:12.371Z,7.8
2018-02-04T08:33:54.651Z,7.9
2018-02-04T08:34:35.197Z,8.01
2018-02-04T08:35:15.905Z,8.01
2018-02-04T08:35:56.597Z,8.08
2018-02-04T08:36:37.133Z,7.58
2018-02-04T08:37:17.888Z,7.69
2018-02-04T08:37:58.314Z,7.68
2018-02-04T08:38:38.957Z,7.42
2018-02-04T08:39:19.555Z,7.49
2018-02-04T08:40:00.438Z,7.49
2018-02-04T08:40:41.003Z,7.8
2018-02-04T08:41:21.549Z,7.64
2018-02-04T08:42:02.255Z,7.67
2018-02-04T08:42:42.817Z,7.63
2018-02-04T08:43:23.336Z,7.69
2018-02-04T08:44:03.883Z,7.82
2018-02-04T08:44:44.443Z,7.89
2018-02-04T08:45:25.081Z,7.89
2018-02-04T08:46:05.544Z,7.98
2018-02-04T08:46:46.144Z,7.93
2018-02-04T08:47:26.625Z,7.89
2018-02-04T08:48:07.210Z,7.93
2018-02-04T08:48:47.694Z,8.05
2018-02-04T08:49:28.279Z,8.04
2018-02-04T08:50:08.764Z,8.12
2018-02-04T08:50:49.370Z,7.92
2018-02-04T08:51:29.881Z,7.77
2018-02-04T08:52:10.452Z,7.58
2018-02-04T08:52:50.941Z,7.52
2018-02-04T08:53:31.477Z,7.5
2018-02-04T08:54:12.064Z,7.61
2018-02-04T08:54:52.601Z,7.42
2018-02-04T08:55:33.201Z,7.43
2018-02-04T08:56:13.704Z,7.64
2018-02-04T08:56:54.255Z,7.68
2018-02-04T08:57:34.814Z,7.98
2018-02-04T08:58:15.349Z,7.83
2018-02-04T08:58:55.959Z,7.82
2018-02-04T08:59:36.524Z,7.83
2018-02-04T09:00:17.098Z,7.75
2018-02-04T09:00:57.654Z,7.63
2018-02-04T09:01:38.510Z,7.68
2018-02-04T09:02:20.185Z,7.68
2018-02-04T09:03:17.406Z,7.77
2018-02-04T09:03:58.053Z,7.85